TimeEDT,TemperatureF,Dew PointF,Humidity,Sea Level PressureIn,VisibilityMPH,Wind Direction,Wind SpeedMPH,Gust SpeedMPH,PrecipitationIn,Events,Conditions,WindDirDegrees,DateUTC
12:00 AM,64.9,57.9,78,30.05,15.0,NNW,5.8,-,N/A,,Drizzle,340,1959-08-01 04:00:00
1:00 AM,64.0,57.9,80,30.06,15.0,NNW,6.9,-,N/A,,Drizzle,340,1959-08-01 05:00:00
2:00 AM,64.0,57.9,80,30.05,15.0,NNW,9.2,-,N/A,,Drizzle,340,1959-08-01 06:00:00
3:00 AM,64.9,57.9,78,30.05,15.0,NNW,10.4,-,N/A,,Drizzle,340,1959-08-01 07:00:00
4:00 AM,64.0,57.9,80,30.05,15.0,NNW,10.4,-,N/A,,Drizzle,340,1959-08-01 08:00:00
5:00 AM,63.0,57.0,81,30.05,15.0,NNW,10.4,-,N/A,,Drizzle,340,1959-08-01 09:00:00
6:00 AM,63.0,57.0,81,30.05,10.0,NNW,9.2,-,N/A,,Drizzle,340,1959-08-01 10:00:00
7:00 AM,62.1,57.0,84,30.06,7.0,NW,8.1,-,N/A,,Drizzle,320,1959-08-01 11:00:00
8:00 AM,66.9,59.0,76,30.07,7.0,WNW,8.1,-,N/A,,Drizzle,290,1959-08-01 12:00:00
9:00 AM,73.0,59.0,61,30.07,7.0,NW,11.5,-,N/A,,Drizzle,320,1959-08-01 13:00:00
10:00 AM,75.9,63.0,64,30.07,8.0,NW,12.7,-,N/A,,Drizzle,320,1959-08-01 14:00:00
11:00 AM,78.1,63.0,60,30.08,10.0,NNW,15.0,-,N/A,,Drizzle,340,1959-08-01 15:00:00
12:00 PM,79.0,64.0,60,30.08,15.0,NNW,15.0,-,N/A,,Drizzle,340,1959-08-01 16:00:00
1:00 PM,81.0,64.0,56,30.08,15.0,NNW,16.1,-,N/A,,Drizzle,340,1959-08-01 17:00:00
2:00 PM,82.0,64.9,56,30.08,10.0,NNW,17.3,-,N/A,,Drizzle,340,1959-08-01 18:00:00
3:00 PM,82.0,66.0,58,30.08,15.0,NNW,18.4,-,N/A,,Drizzle,340,1959-08-01 19:00:00
4:00 PM,78.1,63.0,60,30.09,15.0,North,17.3,-,N/A,,Drizzle,360,1959-08-01 20:00:00
5:00 PM,77.0,62.1,60,30.09,15.0,NNW,18.4,-,N/A,,Drizzle,340,1959-08-01 21:00:00
6:00 PM,73.9,59.0,59,30.10,15.0,North,17.3,-,N/A,,Drizzle,360,1959-08-01 22:00:00
7:00 PM,72.0,54.0,53,30.11,15.0,North,17.3,-,N/A,,Drizzle,360,1959-08-01 23:00:00
8:00 PM,68.0,51.1,55,30.11,15.0,North,12.7,-,N/A,,Drizzle,360,1959-08-02 00:00:00
9:00 PM,63.0,48.0,58,30.12,15.0,North,11.5,-,N/A,,Drizzle,360,1959-08-02 01:00:00
10:00 PM,59.0,48.0,67,30.14,15.0,North,12.7,-,N/A,,Drizzle,360,1959-08-02 02:00:00
11:00 PM,57.0,46.9,69,30.16,15.0,North,10.4,-,N/A,,Drizzle,360,1959-08-02 03:00:00